Time;durP1;ratioP1;P1;durP2;ratioP2;P2;SDS_P1;SDS_P2;PMS_P1;PMS_P2;Temp;Humidity;BMP_temperature;BMP_pressure;BME280_temperature;BME280_humidity;BME280_pressure;Samples;Min_cycle;Max_cycle;Signal;HPM_P1;HPM_P2
2022/11/28 00:00:56;;;;;;;9.17;4.07;;;6.90;99.90;;;;;;5070124;28;20046;-57
2022/11/28 00:03:23;;;;;;;8.27;4.27;;;6.90;99.90;;;;;;5070527;28;20045;-57
2022/11/28 00:05:49;;;;;;;9.23;5.13;;;6.90;99.90;;;;;;5070589;28;20024;-58
2022/11/28 00:08:15;;;;;;;8.30;4.47;;;6.90;99.90;;;;;;5062587;28;20465;-58
2022/11/28 00:10:41;;;;;;;8.83;4.20;;;6.90;99.90;;;;;;5050498;28;20037;-58
2022/11/28 00:13:07;;;;;;;9.17;4.80;;;6.90;99.90;;;;;;5051031;28;20489;-58
2022/11/28 00:15:32;;;;;;;8.47;4.73;;;7.00;99.90;;;;;;5050795;28;20056;-58
2022/11/28 00:17:58;;;;;;;6.97;3.57;;;6.90;99.90;;;;;;5050447;28;20386;-58
2022/11/28 00:20:24;;;;;;;7.33;3.80;;;7.00;99.90;;;;;;5050418;28;20033;-58
2022/11/28 00:22:51;;;;;;;9.77;3.47;;;6.90;99.90;;;;;;5050608;28;20083;-58
2022/11/28 00:25:17;;;;;;;5.20;3.20;;;7.00;99.90;;;;;;5050906;28;20078;-58
2022/11/28 00:27:43;;;;;;;8.13;4.53;;;7.00;99.90;;;;;;5050489;28;20113;-58
2022/11/28 00:30:09;;;;;;;7.67;3.63;;;7.00;99.90;;;;;;5050580;28;20107;-58
2022/11/28 00:32:36;;;;;;;9.23;4.27;;;7.00;99.90;;;;;;5050691;28;20033;-58
2022/11/28 00:35:02;;;;;;;9.63;5.13;;;7.00;99.90;;;;;;5050622;28;20114;-58
2022/11/28 00:37:28;;;;;;;9.07;4.53;;;7.00;99.90;;;;;;5049961;28;20033;-57
2022/11/28 00:39:54;;;;;;;7.87;4.20;;;7.00;99.90;;;;;;5050284;28;20533;-58
2022/11/28 00:42:21;;;;;;;8.40;4.40;;;7.00;99.90;;;;;;5050434;28;20029;-58
2022/11/28 00:44:48;;;;;;;8.43;3.90;;;7.10;99.90;;;;;;5050690;28;20040;-58
2022/11/28 00:47:14;;;;;;;9.90;4.23;;;7.00;99.90;;;;;;5050346;28;20033;-58
2022/11/28 00:49:40;;;;;;;7.43;3.77;;;7.10;99.90;;;;;;5050130;28;20083;-58
2022/11/28 00:52:05;;;;;;;5.57;3.40;;;7.10;99.90;;;;;;5050354;28;20443;-58
2022/11/28 00:54:31;;;;;;;8.03;3.23;;;7.10;99.90;;;;;;5050351;28;20072;-58
2022/11/28 00:56:57;;;;;;;7.47;3.40;;;7.10;99.90;;;;;;5050201;28;20029;-58
2022/11/28 00:59:22;;;;;;;7.43;4.63;;;7.10;99.90;;;;;;5050036;28;20040;-58
2022/11/28 01:01:48;;;;;;;9.70;5.13;;;7.10;99.90;;;;;;5053884;28;20038;-58
2022/11/28 01:04:16;;;;;;;7.50;4.63;;;7.20;99.90;;;;;;5054051;28;20397;-58
2022/11/28 01:06:47;;;;;;;6.97;3.67;;;7.10;99.90;;;;;;5053807;28;20028;-58
2022/11/28 01:09:16;;;;;;;9.90;4.47;;;7.10;99.90;;;;;;5053657;28;20025;-58
2022/11/28 01:11:42;;;;;;;7.57;4.27;;;7.10;99.90;;;;;;5053927;28;20168;-57
2022/11/28 01:14:09;;;;;;;8.53;4.73;;;7.20;99.90;;;;;;5053924;28;20033;-58
2022/11/28 01:16:35;;;;;;;7.57;4.30;;;7.10;99.90;;;;;;5053737;28;20056;-58
2022/11/28 01:19:01;;;;;;;8.87;4.73;;;7.10;99.90;;;;;;5052191;28;20393;-58
2022/11/28 01:21:27;;;;;;;7.87;4.17;;;7.10;99.90;;;;;;5053510;28;20025;-58
2022/11/28 01:23:53;;;;;;;7.07;3.90;;;7.10;99.90;;;;;;5053474;28;20116;-58
2022/11/28 01:26:24;;;;;;;11.27;4.50;;;7.10;99.90;;;;;;5053554;28;20029;-58
2022/11/28 01:28:50;;;;;;;9.07;4.10;;;7.10;99.90;;;;;;5053251;28;20025;-58
2022/11/28 01:31:19;;;;;;;7.47;4.33;;;7.20;99.90;;;;;;5053450;28;20248;-58
2022/11/28 01:33:45;;;;;;;8.77;4.45;;;7.20;99.90;;;;;;5053308;28;20366;-58
2022/11/28 01:36:12;;;;;;;10.97;4.07;;;7.20;99.90;;;;;;5053587;28;20390;-58
2022/11/28 01:38:38;;;;;;;8.00;4.10;;;7.20;99.90;;;;;;5052299;28;20108;-58
2022/11/28 01:41:04;;;;;;;8.53;4.20;;;7.20;99.90;;;;;;5053185;28;20112;-58
2022/11/28 01:43:30;;;;;;;8.80;4.30;;;7.20;99.90;;;;;;5053189;28;20029;-58
2022/11/28 01:45:56;;;;;;;7.37;4.40;;;7.20;99.90;;;;;;5053191;28;20025;-58
2022/11/28 01:48:26;;;;;;;9.13;3.90;;;7.20;99.90;;;;;;5052525;28;20362;-58
2022/11/28 01:50:58;;;;;;;8.33;4.30;;;7.20;99.90;;;;;;5052848;28;20037;-58
2022/11/28 01:53:27;;;;;;;7.13;4.07;;;7.20;99.90;;;;;;5053000;28;20024;-58
2022/11/28 01:56:21;;;;;;;7.00;3.95;;;7.20;99.90;;;;;;5052878;28;20021;-57
2022/11/28 01:58:52;;;;;;;6.33;3.70;;;7.30;99.90;;;;;;5049791;28;20493;-57
2022/11/28 02:01:19;;;;;;;7.83;4.33;;;7.30;99.90;;;;;;5051430;28;20120;-58
2022/11/28 02:03:47;;;;;;;6.27;3.77;;;7.30;99.90;;;;;;5052691;28;20032;-58
2022/11/28 02:06:17;;;;;;;8.43;4.40;;;7.30;99.90;;;;;;5052696;28;20535;-58
2022/11/28 02:08:43;;;;;;;8.53;4.07;;;7.30;99.90;;;;;;5052180;28;20025;-58
2022/11/28 02:11:21;;;;;;;9.77;4.10;;;7.40;99.90;;;;;;5052277;28;20029;-57
2022/11/28 02:14:13;;;;;;;5.57;3.13;;;7.30;99.90;;;;;;5052536;28;20056;-58
2022/11/28 02:16:47;;;;;;;7.63;3.90;;;7.40;99.90;;;;;;5016209;28;20516;-58
2022/11/28 02:19:40;;;;;;;7.47;4.27;;;7.40;99.90;;;;;;5052083;28;20163;-58
2022/11/28 02:22:16;;;;;;;7.47;4.20;;;7.40;99.90;;;;;;5052209;28;20041;-58
2022/11/28 02:25:19;;;;;;;10.00;4.30;;;7.40;99.90;;;;;;5052387;28;20029;-58
2022/11/28 02:27:56;;;;;;;9.43;3.67;;;7.40;99.90;;;;;;5052039;28;20044;-58
2022/11/28 02:30:53;;;;;;;8.50;4.33;;;7.40;99.90;;;;;;5051558;28;20036;-58
2022/11/28 02:33:24;;;;;;;8.40;4.60;;;7.40;99.90;;;;;;5021722;28;20409;-58
2022/11/28 02:36:03;;;;;;;10.47;4.63;;;7.40;99.90;;;;;;5051500;28;20051;-58
2022/11/28 02:38:46;;;;;;;8.32;4.55;;;7.40;99.90;;;;;;5047738;28;20592;-58
2022/11/28 02:41:40;;;;;;;7.97;4.03;;;7.40;99.90;;;;;;5051868;28;20090;-58
2022/11/28 02:44:15;;;;;;;11.07;5.23;;;7.30;99.90;;;;;;5051888;28;20596;-58
2022/11/28 02:47:09;;;;;;;10.73;5.73;;;7.20;99.90;;;;;;5051549;28;20033;-58
2022/11/28 02:49:37;;;;;;;10.03;5.10;;;7.10;99.90;;;;;;5051475;28;20029;-58
2022/11/28 02:52:11;;;;;;;9.00;5.67;;;7.10;99.90;;;;;;5051695;28;20037;-58
2022/11/28 02:54:38;;;;;;;9.43;5.57;;;7.00;99.90;;;;;;5051680;28;20532;-58
2022/11/28 02:57:04;;;;;;;12.37;6.03;;;6.90;99.90;;;;;;5051380;28;20029;-60
2022/11/28 02:59:35;;;;;;;10.70;5.10;;;6.90;99.90;;;;;;5051199;28;20408;-58
2022/11/28 03:02:09;;;;;;;9.87;5.53;;;6.90;99.90;;;;;;5051617;28;20033;-57
2022/11/28 03:04:41;;;;;;;8.90;5.40;;;6.90;99.90;;;;;;5051502;28;20025;-58
2022/11/28 03:07:30;;;;;;;11.93;5.17;;;6.80;99.90;;;;;;5050890;28;20029;-57
2022/11/28 03:10:11;;;;;;;10.05;5.65;;;6.80;99.90;;;;;;5040366;28;20481;-56
2022/11/28 03:12:54;;;;;;;9.43;5.40;;;6.80;99.90;;;;;;5051434;28;20036;-57
2022/11/28 03:15:26;;;;;;;12.20;5.70;;;6.80;99.90;;;;;;5050103;28;20033;-57
2022/11/28 03:18:16;;;;;;;16.90;6.00;;;6.80;99.90;;;;;;5050886;28;20032;-57
2022/11/28 03:21:05;;;;;;;9.53;6.37;;;6.80;99.90;;;;;;5051060;28;20037;-57
2022/11/28 03:23:45;;;;;;;9.52;5.32;;;6.70;99.90;;;;;;5050518;28;20120;-56
2022/11/28 03:26:19;;;;;;;10.20;5.60;;;6.80;99.90;;;;;;5051008;28;20063;-56
2022/11/28 03:28:50;;;;;;;9.60;5.47;;;6.70;99.90;;;;;;5051016;28;20032;-56
2022/11/28 03:31:40;;;;;;;10.00;5.23;;;6.70;99.90;;;;;;5050897;28;20041;-56
2022/11/28 03:34:10;;;;;;;11.60;6.70;;;6.70;99.90;;;;;;5050568;28;20055;-56
2022/11/28 03:36:49;;;;;;;11.13;6.57;;;6.70;99.90;;;;;;5050354;28;20120;-57
2022/11/28 03:39:19;;;;;;;10.80;6.30;;;6.70;99.90;;;;;;5050768;28;20044;-57
2022/11/28 03:42:08;;;;;;;14.03;7.17;;;6.70;99.90;;;;;;5050648;28;20494;-57
2022/11/28 03:44:53;;;;;;;13.10;6.72;;;6.70;99.90;;;;;;5050827;28;20485;-57
2022/11/28 03:47:19;;;;;;;11.33;6.17;;;6.70;99.90;;;;;;5050435;28;20599;-57
2022/11/28 03:49:51;;;;;;;11.77;6.80;;;6.70;99.90;;;;;;5050482;28;20040;-57
2022/11/28 03:52:44;;;;;;;11.87;6.37;;;6.70;99.90;;;;;;5050736;28;20036;-57
2022/11/28 03:55:50;;;;;;;13.47;7.20;;;6.70;99.90;;;;;;5050737;28;20039;-57
2022/11/28 03:58:39;;;;;;;13.53;6.73;;;6.70;99.90;;;;;;5050281;28;20032;-57
2022/11/28 04:01:35;;;;;;;11.02;6.80;;;6.70;99.90;;;;;;5050408;28;20024;-57
2022/11/28 04:04:09;;;;;;;12.33;7.77;;;6.70;99.90;;;;;;5049393;28;20033;-57
2022/11/28 04:07:15;;;;;;;12.33;7.17;;;6.60;99.90;;;;;;5050355;28;20040;-58
2022/11/28 04:09:54;;;;;;;11.47;7.17;;;6.60;99.90;;;;;;5050234;28;20090;-57
2022/11/28 04:12:38;;;;;;;12.63;7.35;;;6.60;99.90;;;;;;5050483;28;20037;-58
2022/11/28 04:15:12;;;;;;;12.60;7.60;;;6.50;99.90;;;;;;5050377;28;20112;-57
2022/11/28 04:17:46;;;;;;;12.93;7.30;;;6.50;99.90;;;;;;5050106;28;20032;-57
2022/11/28 04:20:25;;;;;;;11.00;6.47;;;6.50;99.90;;;;;;5047760;28;20474;-57
2022/11/28 04:22:56;;;;;;;13.43;7.15;;;6.50;99.90;;;;;;5050400;28;20078;-58
2022/11/28 04:25:23;;;;;;;15.20;7.20;;;6.50;99.90;;;;;;5050231;28;20489;-58
2022/11/28 04:27:54;;;;;;;;;;;6.50;99.90;;;;;;5050794;28;20032;-58
2022/11/28 04:30:19;;;;;;;13.53;6.97;;;6.50;99.90;;;;;;5050070;28;19909;-58
2022/11/28 04:32:50;;;;;;;12.73;7.43;;;6.50;99.90;;;;;;5050186;28;20089;-58
2022/11/28 04:35:31;;;;;;;11.67;6.53;;;6.40;99.90;;;;;;5051639;28;20116;-58
2022/11/28 04:37:59;;;;;;;10.67;6.47;;;6.50;99.90;;;;;;5054060;28;20147;-59
2022/11/28 04:40:28;;;;;;;10.33;6.60;;;6.50;99.90;;;;;;5053949;28;20029;-58
2022/11/28 04:42:56;;;;;;;;;;;6.50;99.90;;;;;;5049258;28;20629;-59
2022/11/28 04:45:31;;;;;;;10.90;6.73;;;6.40;99.90;;;;;;5046540;28;20391;-58
2022/11/28 04:47:57;;;;;;;13.60;6.83;;;6.50;99.90;;;;;;5051924;28;20033;-58
2022/11/28 04:50:27;;;;;;;11.63;6.00;;;6.50;99.90;;;;;;5052062;28;20485;-58
2022/11/28 04:53:17;;;;;;;11.37;6.27;;;6.40;99.90;;;;;;5052433;28;20037;-58
2022/11/28 04:55:54;;;;;;;10.37;6.13;;;6.40;99.90;;;;;;5052030;28;20052;-58
2022/11/28 04:58:34;;;;;;;13.07;6.67;;;6.50;99.90;;;;;;5051132;28;20036;-57
2022/11/28 05:01:03;;;;;;;11.87;7.00;;;6.50;99.90;;;;;;5052057;28;20033;-57
2022/11/28 05:03:30;;;;;;;11.68;6.38;;;6.50;99.90;;;;;;5051873;28;20029;-57
2022/11/28 05:05:56;;;;;;;11.30;5.77;;;6.50;99.90;;;;;;5052387;28;20435;-58
2022/11/28 05:08:21;;;;;;;10.50;6.67;;;6.40;99.90;;;;;;5051617;28;20029;-58
2022/11/28 05:10:48;;;;;;;15.20;7.43;;;6.40;99.90;;;;;;5052206;28;20041;-57
2022/11/28 05:13:14;;;;;;;12.80;7.60;;;6.40;99.90;;;;;;5051021;28;20083;-58
2022/11/28 05:15:39;;;;;;;13.57;7.00;;;6.40;99.90;;;;;;5051570;28;20064;-58
2022/11/28 05:18:06;;;;;;;11.27;6.53;;;6.40;99.90;;;;;;5051446;28;20127;-58
2022/11/28 05:20:31;;;;;;;10.57;7.27;;;6.40;99.90;;;;;;5051295;28;20033;-58
2022/11/28 05:22:57;;;;;;;12.60;7.07;;;6.40;99.90;;;;;;5051588;28;20108;-58
2022/11/28 05:25:23;;;;;;;12.33;6.90;;;6.40;99.90;;;;;;5049909;28;20025;-58
2022/11/28 05:27:48;;;;;;;12.60;7.13;;;6.40;99.90;;;;;;5051272;28;20032;-58
2022/11/28 05:30:14;;;;;;;12.73;6.83;;;6.40;99.90;;;;;;5049938;28;20025;-58
2022/11/28 05:32:41;;;;;;;12.33;7.33;;;6.50;99.90;;;;;;5051902;28;20039;-58
2022/11/28 05:35:07;;;;;;;15.53;8.07;;;6.40;99.90;;;;;;5051817;28;20037;-58
2022/11/28 05:37:32;;;;;;;12.43;6.60;;;6.40;99.90;;;;;;5051340;28;20196;-58
2022/11/28 05:39:58;;;;;;;13.83;7.73;;;6.40;99.90;;;;;;5050920;28;20389;-58
2022/11/28 05:42:25;;;;;;;13.97;7.17;;;6.40;99.90;;;;;;5051563;28;20037;-60
2022/11/28 05:44:51;;;;;;;14.27;9.13;;;6.40;99.90;;;;;;5050573;28;20576;-58
2022/11/28 05:47:17;;;;;;;13.80;7.73;;;6.40;99.90;;;;;;5051112;28;20477;-59
2022/11/28 05:49:45;;;;;;;13.10;8.00;;;6.30;99.90;;;;;;5051062;28;20048;-56
2022/11/28 05:52:10;;;;;;;12.93;7.90;;;6.30;99.90;;;;;;5051237;28;20055;-59
2022/11/28 05:54:36;;;;;;;13.50;7.80;;;6.40;99.90;;;;;;5051169;28;20036;-57
2022/11/28 05:57:05;;;;;;;18.77;8.80;;;6.40;99.90;;;;;;5050784;28;20051;-57
2022/11/28 05:59:30;;;;;;;14.20;8.10;;;6.30;99.90;;;;;;5047924;22;20041;-52
2022/11/28 06:01:56;;;;;;;13.13;7.60;;;6.30;99.90;;;;;;5046604;28;20031;-52
2022/11/28 06:04:22;;;;;;;13.17;7.73;;;6.40;99.90;;;;;;5031013;28;20442;-53
2022/11/28 06:06:49;;;;;;;12.87;7.23;;;6.30;99.90;;;;;;5031477;28;20030;-53
2022/11/28 06:09:15;;;;;;;15.30;7.63;;;6.40;99.90;;;;;;5031124;28;20035;-53
2022/11/28 06:11:41;;;;;;;14.27;7.40;;;6.40;99.90;;;;;;5031356;28;20402;-50
2022/11/28 06:14:06;;;;;;;14.27;7.13;;;6.40;99.90;;;;;;5029849;28;20025;-49
2022/11/28 06:16:32;;;;;;;15.53;8.07;;;6.40;99.90;;;;;;5031063;28;20525;-49
2022/11/28 06:19:00;;;;;;;12.40;7.37;;;6.40;99.90;;;;;;5028986;28;20033;-52
2022/11/28 06:21:27;;;;;;;14.50;7.73;;;6.50;99.90;;;;;;5030811;28;20029;-53
2022/11/28 06:23:53;;;;;;;15.53;8.03;;;6.40;99.90;;;;;;5030633;28;20072;-57
2022/11/28 06:26:22;;;;;;;13.40;7.30;;;6.40;99.90;;;;;;5030754;28;20053;-50
2022/11/28 06:28:48;;;;;;;16.83;7.97;;;6.40;99.90;;;;;;5029399;28;20026;-52
2022/11/28 06:31:17;;;;;;;12.63;7.47;;;6.30;99.90;;;;;;5030816;28;20041;-53
2022/11/28 06:33:43;;;;;;;;;;;6.30;99.90;;;;;;5031067;28;20029;-52
2022/11/28 06:36:10;;;;;;;15.20;7.30;;;6.40;99.90;;;;;;5030987;28;20233;-51
2022/11/28 06:38:37;;;;;;;17.93;9.20;;;6.30;99.90;;;;;;5030291;28;20389;-55
2022/11/28 06:41:08;;;;;;;12.33;7.57;;;6.30;99.90;;;;;;5031012;28;20047;-54
2022/11/28 06:43:34;;;;;;;14.50;8.13;;;6.40;99.90;;;;;;5029351;28;20033;-51
2022/11/28 06:46:00;;;;;;;12.50;7.97;;;6.30;99.90;;;;;;5030252;28;20030;-51
2022/11/28 06:48:26;;;;;;;17.87;8.67;;;6.40;99.90;;;;;;5029764;28;20044;-52
2022/11/28 06:50:53;;;;;;;19.23;9.17;;;6.40;99.90;;;;;;5030450;28;20037;-52
2022/11/28 06:53:19;;;;;;;14.30;8.00;;;6.40;99.90;;;;;;5030531;28;20405;-53
2022/11/28 06:55:46;;;;;;;18.00;8.80;;;6.40;99.90;;;;;;5030600;28;20501;-51
2022/11/28 06:58:12;;;;;;;12.80;7.53;;;6.40;99.90;;;;;;5028856;28;20524;-50
2022/11/28 07:00:39;;;;;;;14.33;7.93;;;6.50;99.90;;;;;;5029295;28;20502;-55
2022/11/28 07:03:04;;;;;;;13.03;7.97;;;6.40;99.90;;;;;;5030328;28;20179;-52
2022/11/28 07:05:30;;;;;;;13.07;7.20;;;6.40;99.90;;;;;;5030294;28;20025;-52
2022/11/28 07:07:59;;;;;;;12.20;7.67;;;6.50;99.90;;;;;;5029480;28;20091;-44
2022/11/28 07:10:26;;;;;;;13.32;7.70;;;6.50;99.90;;;;;;5029060;28;20021;-44
2022/11/28 07:12:54;;;;;;;15.77;8.43;;;6.60;99.90;;;;;;5029885;28;20462;-47
2022/11/28 07:15:19;;;;;;;15.37;8.23;;;6.50;99.90;;;;;;5028140;28;20036;-44
2022/11/28 07:17:45;;;;;;;17.27;8.67;;;6.60;99.90;;;;;;5029567;28;20034;-43
2022/11/28 07:20:11;;;;;;;20.80;8.70;;;6.60;99.90;;;;;;5029509;28;20040;-51
2022/11/28 07:22:37;;;;;;;14.87;7.83;;;6.70;99.90;;;;;;5029989;28;20389;-51
2022/11/28 07:25:03;;;;;;;14.53;7.93;;;6.70;99.90;;;;;;5029705;28;20113;-51
2022/11/28 07:27:29;;;;;;;15.67;7.80;;;6.70;99.90;;;;;;5029799;28;20497;-49
2022/11/28 07:29:54;;;;;;;13.13;7.97;;;6.70;99.90;;;;;;5028254;28;20025;-50
2022/11/28 07:32:20;;;;;;;11.93;7.30;;;6.70;99.90;;;;;;5030054;28;20504;-51
2022/11/28 07:34:46;;;;;;;12.47;6.97;;;6.70;99.90;;;;;;5029693;28;20044;-52
2022/11/28 07:37:12;;;;;;;12.73;7.40;;;6.70;99.90;;;;;;5029724;28;20032;-52
2022/11/28 07:39:38;;;;;;;12.77;7.00;;;6.60;99.90;;;;;;5029196;28;20397;-51
2022/11/28 07:42:03;;;;;;;16.97;8.63;;;6.70;99.90;;;;;;5029879;28;20096;-51
2022/11/28 07:44:30;;;;;;;15.07;8.13;;;6.60;99.90;;;;;;5026827;28;20489;-52
2022/11/28 07:46:56;;;;;;;13.47;7.27;;;6.70;99.90;;;;;;5029681;28;20030;-56
2022/11/28 07:49:22;;;;;;;12.93;7.10;;;6.70;99.90;;;;;;5029169;28;20045;-51
2022/11/28 07:51:47;;;;;;;16.77;7.70;;;6.80;99.90;;;;;;5029505;28;20473;-52
2022/11/28 07:54:13;;;;;;;15.13;7.70;;;6.80;99.90;;;;;;5029638;28;20033;-52
2022/11/28 07:56:39;;;;;;;14.33;7.10;;;6.80;99.90;;;;;;5029781;28;20025;-52
2022/11/28 07:59:05;;;;;;;11.80;7.20;;;6.80;99.90;;;;;;5027951;28;20037;-51
2022/11/28 08:01:36;;;;;;;11.17;6.90;;;6.90;99.90;;;;;;5029685;28;20557;-52
2022/11/28 08:04:05;;;;;;;10.23;6.67;;;6.90;99.90;;;;;;5029568;28;20069;-53
2022/11/28 08:06:36;;;;;;;12.10;6.97;;;7.00;99.90;;;;;;5029675;28;20057;-53
2022/11/28 08:09:03;;;;;;;11.47;7.20;;;7.00;99.90;;;;;;5028925;28;20049;-55
2022/11/28 08:11:29;;;;;;;11.80;7.00;;;7.10;99.90;;;;;;5029242;28;20044;-55
2022/11/28 08:13:56;;;;;;;11.37;6.93;;;7.00;99.90;;;;;;5028429;28;20037;-57
2022/11/28 08:16:24;;;;;;;13.63;6.87;;;7.00;99.90;;;;;;5029483;28;20378;-56
2022/11/28 08:18:51;;;;;;;13.23;7.07;;;6.90;99.90;;;;;;5028839;28;20447;-56
2022/11/28 08:21:23;;;;;;;12.37;7.00;;;6.90;99.90;;;;;;5027684;28;20553;-57
2022/11/28 08:23:53;;;;;;;14.10;7.47;;;6.90;99.90;;;;;;5028727;28;20025;-58
2022/11/28 08:26:22;;;;;;;14.20;6.97;;;6.90;99.90;;;;;;5029014;28;20128;-57
2022/11/28 08:28:49;;;;;;;9.60;6.72;;;6.90;99.90;;;;;;5027783;28;20501;-57
2022/11/28 08:31:18;;;;;;;12.20;6.97;;;6.90;99.90;;;;;;5029000;28;20029;-58
2022/11/28 08:33:45;;;;;;;10.47;6.83;;;6.90;99.90;;;;;;5029216;28;20179;-57
2022/11/28 08:36:13;;;;;;;10.23;6.33;;;6.90;99.90;;;;;;5029514;28;20585;-57
2022/11/28 08:38:40;;;;;;;13.47;7.53;;;7.00;99.90;;;;;;5028363;28;20537;-57
2022/11/28 08:41:08;;;;;;;14.20;7.33;;;7.00;99.90;;;;;;5029401;28;20409;-57
2022/11/28 08:43:36;;;;;;;13.97;6.90;;;6.90;99.90;;;;;;5027719;28;20029;-57
2022/11/28 08:46:07;;;;;;;10.53;6.80;;;7.00;99.90;;;;;;5026215;28;20041;-58
2022/11/28 08:48:34;;;;;;;14.43;7.13;;;7.00;99.90;;;;;;5009786;28;20045;-58
2022/11/28 08:51:00;;;;;;;12.33;6.30;;;7.00;99.90;;;;;;5028039;28;20030;-58
2022/11/28 08:53:26;;;;;;;11.90;7.13;;;7.00;99.90;;;;;;5025631;28;20540;-57
2022/11/28 08:55:51;;;;;;;13.17;7.50;;;7.00;99.90;;;;;;5028153;28;20084;-59
2022/11/28 08:58:17;;;;;;;13.93;6.80;;;7.00;99.90;;;;;;5026816;28;20025;-59
2022/11/28 09:00:43;;;;;;;14.10;7.70;;;7.00;99.90;;;;;;5027263;28;20037;-59
2022/11/28 09:03:14;;;;;;;15.80;7.73;;;7.10;99.90;;;;;;5026628;28;20486;-59
2022/11/28 09:05:41;;;;;;;11.60;7.37;;;7.10;99.90;;;;;;5028317;28;20359;-59
2022/11/28 09:08:07;;;;;;;13.27;7.47;;;7.10;99.90;;;;;;5027968;28;20025;-59
2022/11/28 09:10:37;;;;;;;13.03;7.77;;;7.10;99.90;;;;;;5028069;28;20112;-58
2022/11/28 09:13:03;;;;;;;16.17;7.80;;;7.10;99.90;;;;;;5028715;28;20251;-59
2022/11/28 09:15:29;;;;;;;10.77;7.03;;;7.10;99.90;;;;;;5027480;28;20026;-59
2022/11/28 09:17:55;;;;;;;13.23;7.87;;;7.10;99.90;;;;;;5028570;28;20115;-59
2022/11/28 09:20:21;;;;;;;15.40;7.60;;;7.10;99.90;;;;;;5026222;28;20110;-59
2022/11/28 09:22:47;;;;;;;15.03;8.73;;;7.10;99.90;;;;;;5040477;28;20021;-57
2022/11/28 09:25:13;;;;;;;15.43;7.93;;;7.20;99.90;;;;;;5051324;28;20465;-55
2022/11/28 09:27:39;;;;;;;15.17;8.87;;;7.20;99.90;;;;;;5050954;28;20477;-57
2022/11/28 09:30:08;;;;;;;13.93;8.30;;;7.20;99.90;;;;;;5050428;28;20161;-56
2022/11/28 09:32:34;;;;;;;14.60;8.87;;;7.20;99.90;;;;;;5051540;28;20039;-55
2022/11/28 09:35:00;;;;;;;17.23;9.70;;;7.20;99.90;;;;;;5051214;28;20032;-59
2022/11/28 09:37:29;;;;;;;15.33;9.00;;;7.30;99.90;;;;;;5050929;28;20033;-59
2022/11/28 09:39:55;;;;;;;13.40;9.43;;;7.20;99.90;;;;;;5050959;28;20119;-59
2022/11/28 09:42:42;;;;;;;16.57;9.23;;;7.20;99.90;;;;;;5050964;28;20396;-59
2022/11/28 09:45:16;;;;;;;14.10;8.97;;;7.10;99.90;;;;;;5010442;28;20402;-59
2022/11/28 09:47:49;;;;;;;31.83;20.00;;;7.10;99.90;;;;;;5029903;28;20040;-59
2022/11/28 09:50:21;;;;;;;16.97;10.37;;;7.20;99.90;;;;;;5031032;28;20022;-59
2022/11/28 09:53:22;;;;;;;20.70;11.73;;;7.10;99.90;;;;;;5031178;28;20063;-58
2022/11/28 09:55:58;;;;;;;19.50;11.13;;;7.10;99.90;;;;;;5031208;28;20133;-58
2022/11/28 09:58:40;;;;;;;21.33;12.70;;;7.10;99.90;;;;;;5029217;28;20052;-57
2022/11/28 10:01:28;;;;;;;19.07;12.03;;;7.00;99.90;;;;;;5035333;28;20063;-56
2022/11/28 10:04:06;;;;;;;20.93;11.90;;;7.00;99.90;;;;;;5036940;28;20434;-57
2022/11/28 10:06:32;;;;;;;19.03;11.10;;;7.00;99.90;;;;;;5030538;28;20489;-56
2022/11/28 10:09:29;;;;;;;19.40;12.20;;;7.00;99.90;;;;;;5032444;28;20061;-57
2022/11/28 10:12:04;;;;;;;18.43;11.90;;;6.90;99.90;;;;;;5026052;28;20044;-57
2022/11/28 10:15:00;;;;;;;21.40;12.40;;;7.00;99.90;;;;;;4986647;28;37461;-57
2022/11/28 10:17:58;;;;;;;22.27;11.77;;;6.90;99.90;;;;;;4994509;28;20129;-56
2022/11/28 10:20:32;;;;;;;20.20;12.73;;;6.90;99.90;;;;;;4974024;28;20078;-55
2022/11/28 10:23:05;;;;;;;19.30;11.63;;;6.90;99.90;;;;;;4991126;28;20181;-56
2022/11/28 10:25:39;;;;;;;20.20;11.67;;;6.90;99.90;;;;;;4994526;28;20030;-57
2022/11/28 10:28:20;;;;;;;19.50;11.53;;;6.90;99.90;;;;;;4990522;28;20117;-55
2022/11/28 10:30:51;;;;;;;18.20;11.30;;;6.90;99.90;;;;;;4990146;28;20031;-57
2022/11/28 10:33:25;;;;;;;21.03;11.33;;;6.90;99.90;;;;;;4990994;28;20062;-55
2022/11/28 10:35:57;;;;;;;17.50;10.97;;;6.90;99.90;;;;;;4990925;28;20154;-55
2022/11/28 10:38:26;;;;;;;19.40;11.53;;;7.00;99.90;;;;;;4990574;28;20102;-55
2022/11/28 10:41:15;;;;;;;18.75;11.05;;;7.00;99.90;;;;;;4988967;28;20030;-55
2022/11/28 10:43:58;;;;;;;18.90;10.97;;;7.00;99.90;;;;;;4970471;28;20038;-55
2022/11/28 10:46:41;;;;;;;20.03;12.30;;;7.00;99.90;;;;;;4970594;28;20034;-56
2022/11/28 10:49:22;;;;;;;18.00;11.07;;;7.00;99.90;;;;;;4970367;28;20038;-57
2022/11/28 10:52:13;;;;;;;20.33;11.90;;;7.00;99.90;;;;;;4988639;28;20038;-57
2022/11/28 10:54:51;;;;;;;16.63;10.50;;;7.00;99.90;;;;;;4988418;28;20023;-57
2022/11/28 10:57:35;;;;;;;23.13;10.53;;;7.00;99.90;;;;;;4988319;28;20026;-57
2022/11/28 11:00:04;;;;;;;20.23;11.17;;;7.10;99.90;;;;;;4985808;28;20030;-57
2022/11/28 11:02:44;;;;;;;;;;;7.10;99.90;;;;;;4990104;28;20030;-57
2022/11/28 11:05:23;;;;;;;15.43;10.20;;;7.10;99.90;;;;;;4987517;28;20368;-58
2022/11/28 11:07:52;;;;;;;23.60;11.32;;;7.10;99.90;;;;;;4989199;28;20128;-59
2022/11/28 11:10:40;;;;;;;18.45;10.70;;;7.20;99.90;;;;;;4987894;28;20033;-59
2022/11/28 11:13:25;;;;;;;18.67;10.60;;;7.20;99.90;;;;;;4989138;28;20034;-59
2022/11/28 11:16:05;;;;;;;20.93;11.07;;;7.10;99.90;;;;;;4993238;28;20129;-59
2022/11/28 11:18:49;;;;;;;19.13;10.60;;;7.20;99.90;;;;;;4989422;28;20041;-59
2022/11/28 11:21:23;;;;;;;14.93;9.77;;;7.20;99.90;;;;;;4989720;28;20455;-59
2022/11/28 11:24:17;;;;;;;19.23;11.40;;;7.20;99.90;;;;;;4990035;28;20034;-59
2022/11/28 11:26:45;;;;;;;18.27;10.27;;;7.10;99.90;;;;;;4989641;28;20471;-59
2022/11/28 11:29:28;;;;;;;18.63;10.85;;;7.20;99.90;;;;;;4988600;28;20053;-59
2022/11/28 11:31:54;;;;;;;18.23;10.07;;;7.20;99.90;;;;;;4990739;28;20034;-58
2022/11/28 11:34:22;;;;;;;18.13;10.53;;;7.10;99.90;;;;;;4989816;28;20117;-58
2022/11/28 11:36:49;;;;;;;17.47;10.57;;;7.20;99.90;;;;;;4989503;28;20093;-58
2022/11/28 11:39:21;;;;;;;18.23;11.30;;;7.20;99.90;;;;;;4989896;28;20083;-59
2022/11/28 11:41:52;;;;;;;19.53;11.23;;;7.20;99.90;;;;;;4988567;28;20061;-55
2022/11/28 11:44:19;;;;;;;18.30;11.60;;;7.20;99.90;;;;;;4986884;28;20035;-57
2022/11/28 11:46:59;;;;;;;17.80;10.87;;;7.20;99.90;;;;;;4989331;28;20033;-59
2022/11/28 11:49:37;;;;;;;17.90;10.57;;;7.20;99.90;;;;;;4988200;28;20034;-59
2022/11/28 11:52:12;;;;;;;22.97;12.20;;;7.20;99.90;;;;;;4988033;28;20034;-58
2022/11/28 11:54:57;;;;;;;18.10;11.03;;;7.20;99.90;;;;;;4986425;28;20041;-59
2022/11/28 11:57:26;;;;;;;19.73;10.43;;;7.20;99.90;;;;;;4988429;28;20027;-59
2022/11/28 11:59:59;;;;;;;21.10;11.95;;;7.20;99.90;;;;;;5005999;23;20115;-59
2022/11/28 12:02:33;;;;;;;18.07;10.60;;;7.20;99.90;;;;;;4992532;28;20498;-59
2022/11/28 12:05:42;;;;;;;19.53;10.80;;;7.20;99.90;;;;;;5009258;28;20072;-59
2022/11/28 12:08:34;;;;;;;19.60;10.38;;;7.30;99.90;;;;;;5006935;28;20466;-59
2022/11/28 12:11:33;;;;;;;19.70;11.23;;;7.30;99.90;;;;;;5008645;28;20187;-59
2022/11/28 12:14:16;;;;;;;22.70;11.40;;;7.30;99.90;;;;;;5008085;28;20123;-59
2022/11/28 12:16:51;;;;;;;23.03;11.63;;;7.30;99.90;;;;;;5007705;28;20053;-59
2022/11/28 12:19:28;;;;;;;18.37;10.90;;;7.30;99.90;;;;;;5008222;28;20026;-60
2022/11/28 12:22:24;;;;;;;18.27;11.07;;;7.30;99.90;;;;;;5006939;28;20125;-60
2022/11/28 12:25:09;;;;;;;20.07;12.57;;;7.20;99.90;;;;;;5008506;28;20053;-60
2022/11/28 12:27:46;;;;;;;17.03;10.93;;;7.20;99.90;;;;;;5008547;28;20049;-59
2022/11/28 12:30:55;;;;;;;21.20;11.60;;;7.20;99.90;;;;;;5007506;28;20030;-62
2022/11/28 12:34:00;;;;;;;19.08;11.98;;;7.30;99.90;;;;;;5007057;28;20028;-59
2022/11/28 12:36:33;;;;;;;22.17;11.90;;;7.20;99.90;;;;;;5008068;28;20060;-60
2022/11/28 12:39:14;;;;;;;21.00;12.43;;;7.20;99.90;;;;;;5008049;28;20252;-58
2022/11/28 12:42:04;;;;;;;20.23;13.30;;;7.20;99.90;;;;;;5009060;28;20057;-59
2022/11/28 12:44:56;;;;;;;18.03;11.63;;;7.20;99.90;;;;;;5008525;28;20100;-59
2022/11/28 12:47:30;;;;;;;19.63;11.20;;;7.20;99.90;;;;;;5008647;28;20113;-61
2022/11/28 12:50:02;;;;;;;21.07;11.63;;;7.20;99.90;;;;;;5008461;28;20442;-61
2022/11/28 12:53:08;;;;;;;20.47;12.00;;;7.20;99.90;;;;;;5007488;28;20061;-62
2022/11/28 12:55:56;;;;;;;19.00;12.00;;;7.20;99.90;;;;;;5008808;28;20106;-61
2022/11/28 12:58:53;;;;;;;20.40;11.97;;;7.20;99.90;;;;;;5011182;28;20041;-64
2022/11/28 13:01:32;;;;;;;20.70;11.57;;;7.20;99.90;;;;;;5011985;28;20087;-59
2022/11/28 13:03:58;;;;;;;;;;;7.20;99.90;;;;;;5012743;28;20045;-60
2022/11/28 13:06:40;;;;;;;36.40;19.20;;;7.30;99.90;;;;;;5011753;28;19909;-60
2022/11/28 13:09:47;;;;;;;18.73;11.00;;;7.20;99.90;;;;;;5012335;28;20030;-60
2022/11/28 13:12:28;;;;;;;19.07;11.23;;;7.20;99.90;;;;;;5011830;28;20397;-60
2022/11/28 13:14:55;;;;;;;24.70;12.60;;;7.30;99.90;;;;;;5012070;28;20037;-59
2022/11/28 13:17:31;;;;;;;23.03;12.40;;;7.20;99.90;;;;;;5014349;28;20109;-59